Time;durP1;ratioP1;P1;durP2;ratioP2;P2;SDS_P1;SDS_P2;PMS_P1;PMS_P2;Temp;Humidity;BMP_temperature;BMP_pressure;BME280_temperature;BME280_humidity;BME280_pressure;Samples;Min_cycle;Max_cycle;Signal;HPM_P1;HPM_P2
2023/09/01 07:23:36;;;;;;;10.70;9.05;;;;;;;-145.79;100.00;77048.75;5329858;27;20393;-78
2023/09/01 07:26:13;;;;;;;15.90;11.38;;;;;;;-145.79;100.00;77055.09;5329639;28;20028;-78
2023/09/01 07:28:44;;;;;;;10.75;9.75;;;;;;;-145.79;100.00;77055.09;5313064;28;20111;-79
2023/09/01 07:31:16;;;;;;;12.02;9.93;;;;;;;-145.79;100.00;77052.97;5317716;28;20099;-78
2023/09/01 07:33:48;;;;;;;10.02;8.48;;;;;;;-145.79;100.00;77027.56;5317905;28;20382;-78
2023/09/01 07:36:21;;;;;;;11.75;10.52;;;;;;;-145.79;100.00;77031.78;5301362;28;20067;-84
2023/09/01 07:38:52;;;;;;;13.18;10.88;;;;;;;-145.79;100.00;77029.66;5327690;28;20064;-77
2023/09/01 07:41:24;;;;;;;14.25;10.68;;;;;;;-145.79;100.00;77023.31;5334055;27;20031;-76
2023/09/01 07:43:55;;;;;;;11.38;10.30;;;;;;;-145.79;100.00;77031.78;5321613;28;20470;-78
2023/09/01 07:46:27;;;;;;;14.13;9.88;;;;;;;-145.79;100.00;77019.06;5318948;27;20048;-77
2023/09/01 07:49:00;;;;;;;14.68;12.35;;;;;;;-145.79;100.00;77012.72;5318082;28;20054;-77
2023/09/01 07:51:31;;;;;;;15.50;12.15;;;;;;;-145.79;100.00;77016.94;5316989;28;20024;-77
2023/09/01 07:54:03;;;;;;;10.90;9.80;;;;;;;-145.79;100.00;77016.94;5304367;28;20028;-77
2023/09/01 07:56:34;;;;;;;12.32;11.02;;;;;;;-145.79;100.00;77014.84;5325591;28;20024;-77
2023/09/01 07:59:06;;;;;;;9.88;8.95;;;;;;;-145.79;100.00;77012.72;5323138;28;20023;-79
2023/09/01 08:01:37;;;;;;;9.90;8.85;;;;;;;-145.79;100.00;76993.63;5318594;27;20064;-79
2023/09/01 08:04:08;;;;;;;12.32;10.18;;;;;;;-145.79;100.00;77002.13;5326503;28;20032;-78
2023/09/01 08:06:43;;;;;;;10.15;9.13;;;;;;;-145.79;100.00;77006.34;5339800;27;20024;-77
2023/09/01 08:09:15;;;;;;;10.68;9.68;;;;;;;-145.79;100.00;77002.13;5319051;28;20020;-78
2023/09/01 08:11:47;;;;;;;11.07;9.98;;;;;;;-145.79;100.00;77010.59;5331044;27;20020;-78
2023/09/01 08:14:18;;;;;;;10.98;9.88;;;;;;;-145.79;100.00;77004.25;5319406;28;20114;-78
2023/09/01 08:16:52;;;;;;;17.27;15.65;;;;;;;-145.79;100.00;77000.00;5316739;28;20194;-78
2023/09/01 08:19:23;;;;;;;11.60;10.55;;;;;;;-145.79;100.00;77004.25;5325939;27;20034;-76
2023/09/01 08:21:56;;;;;;;11.57;10.50;;;;;;;-145.79;100.00;77006.34;5333743;28;20047;-77
2023/09/01 08:24:28;;;;;;;10.18;9.27;;;;;;;-145.79;100.00;77004.25;5327090;27;20020;-77
2023/09/01 08:27:03;;;;;;;10.35;9.35;;;;;;;-145.79;100.00;77000.00;5312653;27;20023;-77
2023/09/01 08:29:35;;;;;;;10.98;8.75;;;;;;;-145.79;100.00;77006.34;5325438;27;20095;-77
2023/09/01 08:32:07;;;;;;;9.88;8.90;;;;;;;-145.79;100.00;77002.13;5321115;28;20463;-78
2023/09/01 08:34:38;;;;;;;9.48;8.68;;;;;;;-145.79;100.00;77000.00;5308909;28;20034;-77
2023/09/01 08:37:10;;;;;;;9.07;8.27;;;;;;;-145.79;100.00;77000.00;5301718;28;20099;-77
2023/09/01 08:39:44;;;;;;;9.38;8.45;;;;;;;-145.79;100.00;77000.00;5304890;28;20458;-77
2023/09/01 08:42:18;;;;;;;9.38;8.18;;;;;;;-145.79;100.00;76995.75;5300520;28;20373;-77
2023/09/01 08:44:52;;;;;;;9.63;8.70;;;;;;;-145.79;100.00;77010.59;5316803;28;20024;-78
2023/09/01 08:47:29;;;;;;;9.27;8.48;;;;;;;-145.79;100.00;77008.47;5311651;28;20032;-78
2023/09/01 08:50:04;;;;;;;9.60;8.80;;;;;;;-145.79;100.00;77010.59;5291614;28;20024;-78
2023/09/01 08:52:35;;;;;;;9.63;8.82;;;;;;;-145.79;100.00;77014.84;5300804;28;20020;-79
2023/09/01 08:55:07;;;;;;;11.65;10.65;;;;;;;-145.79;100.00;77016.94;5321041;28;20054;-78
2023/09/01 08:57:39;;;;;;;9.77;8.88;;;;;;;-145.79;100.00;77008.47;5299467;28;20039;-79
2023/09/01 09:00:10;;;;;;;10.25;9.35;;;;;;;-145.79;100.00;77000.00;5317380;28;20116;-78
2023/09/01 09:02:43;;;;;;;10.27;9.38;;;;;;;-145.79;100.00;76997.88;5310889;28;20481;-78
2023/09/01 09:05:15;;;;;;;10.77;9.85;;;;;;;-145.79;100.00;77010.59;5313154;28;20032;-77
2023/09/01 09:07:58;;;;;;;9.85;8.85;;;;;;;-145.79;100.00;77004.25;5304626;28;20024;-78
2023/09/01 09:10:40;;;;;;;9.80;8.90;;;;;;;-145.79;100.00;77000.00;5304756;28;20055;-77
2023/09/01 09:13:29;;;;;;;9.50;8.70;;;;;;;-145.79;100.00;77000.00;5301223;28;20055;-72
2023/09/01 09:16:07;;;;;;;8.95;8.18;;;;;;;-145.79;100.00;77000.00;5316559;28;20178;-76
2023/09/01 09:18:41;;;;;;;8.45;7.65;;;;;;;-145.79;100.00;76983.03;5329255;28;20040;-78
2023/09/01 09:21:29;;;;;;;9.80;8.90;;;;;;;-145.79;100.00;76987.28;5319775;28;20471;-78
2023/09/01 09:24:02;;;;;;;9.15;8.35;;;;;;;-145.79;100.00;76995.75;5322783;28;20027;-77
2023/09/01 09:26:34;;;;;;;8.88;8.07;;;;;;;-145.79;100.00;77006.34;5313932;28;20088;-77
2023/09/01 09:29:12;;;;;;;9.20;8.40;;;;;;;-145.79;100.00;77008.47;5317034;28;20094;-77
2023/09/01 09:31:44;;;;;;;8.00;7.30;;;;;;;-145.79;100.00;77004.25;5313890;28;20099;-77
2023/09/01 09:34:15;;;;;;;8.32;6.25;;;;;;;-145.79;100.00;76993.63;5302491;28;20162;-77
2023/09/01 09:36:48;;;;;;;7.40;6.70;;;;;;;-145.79;100.00;76995.75;5322238;28;20028;-77
2023/09/01 09:39:25;;;;;;;51.45;46.72;;;;;;;-145.79;100.00;76995.75;5297191;28;20467;-79
2023/09/01 09:41:59;;;;;;;10.45;9.45;;;;;;;-145.79;100.00;77004.25;5312484;28;20127;-78
2023/09/01 09:44:35;;;;;;;7.18;6.57;;;;;;;-145.79;100.00;77002.13;5307015;28;20034;-78
2023/09/01 09:47:13;;;;;;;7.07;6.35;;;;;;;-145.79;100.00;77002.13;5317013;28;20037;-78
2023/09/01 09:49:47;;;;;;;6.70;6.10;;;;;;;-145.79;100.00;77000.00;5314054;28;20078;-79
2023/09/01 09:52:19;;;;;;;6.28;5.65;;;;;;;-145.79;100.00;77000.00;5313011;28;20040;-78
2023/09/01 09:54:54;;;;;;;6.95;6.07;;;;;;;-145.79;100.00;76993.63;5305803;28;20021;-78
2023/09/01 09:57:27;;;;;;;7.30;6.32;;;;;;;-145.79;100.00;76995.75;5308752;28;20051;-78
2023/09/01 10:00:14;;;;;;;6.43;5.82;;;;;;;-145.79;100.00;76995.75;5320803;28;20442;-79
2023/09/01 10:02:56;;;;;;;8.98;7.95;;;;;;;-145.79;100.00;76983.03;5299016;28;20040;-79
2023/09/01 10:05:34;;;;;;;6.85;6.25;;;;;;;-145.79;100.00;76983.03;5284192;28;20024;-78
2023/09/01 10:08:07;;;;;;;7.22;6.60;;;;;;;-145.79;100.00;76978.81;5314771;28;20052;-78
2023/09/01 10:10:41;;;;;;;7.72;7.07;;;;;;;-145.79;100.00;76972.44;5301809;28;20040;-78
2023/09/01 10:13:12;;;;;;;7.38;6.68;;;;;;;-145.79;100.00;76961.84;5310878;28;20446;-80
2023/09/01 10:15:45;;;;;;;6.82;5.93;;;;;;;-145.79;100.00;76974.56;5316721;28;20052;-79
2023/09/01 10:18:17;;;;;;;6.78;6.07;;;;;;;-145.79;100.00;76970.31;5313785;28;20505;-79
2023/09/01 10:20:49;;;;;;;5.82;5.32;;;;;;;-145.79;100.00;76966.09;5312134;28;20031;-79
2023/09/01 10:23:20;;;;;;;7.30;6.45;;;;;;;-145.79;100.00;76978.81;5315787;28;20367;-80
2023/09/01 10:26:15;;;;;;;5.78;5.30;;;;;;;-145.79;100.00;76974.56;5284073;28;20104;-80
2023/09/01 10:29:00;;;;;;;18.80;17.13;;;;;;;-145.79;100.00;76974.56;5283785;28;20039;-80
2023/09/01 10:31:33;;;;;;;37.38;34.17;;;;;;;-145.79;100.00;76963.97;5316497;28;20053;-80
2023/09/01 10:34:13;;;;;;;11.65;10.65;;;;;;;-145.79;100.00;76974.56;5308594;28;20070;-79
2023/09/01 10:36:45;;;;;;;6.55;5.88;;;;;;;-145.79;100.00;76963.97;5304856;28;20028;-80
2023/09/01 10:39:17;;;;;;;5.10;4.60;;;;;;;-145.79;100.00;76957.59;5313983;28;20024;-79
2023/09/01 10:42:07;;;;;;;4.57;4.18;;;;;;;-145.79;100.00;76961.84;5316437;28;20039;-79
2023/09/01 10:44:38;;;;;;;4.75;4.35;;;;;;;-145.79;100.00;76951.25;5313045;28;20284;-79
2023/09/01 10:47:32;;;;;;;5.43;4.03;;;;;;;-145.79;100.00;76942.78;5311627;28;20477;-79
2023/09/01 10:50:06;;;;;;;4.65;4.10;;;;;;;-145.79;100.00;76953.38;5311899;28;20032;-81
2023/09/01 10:52:39;;;;;;;4.60;4.18;;;;;;;-145.79;100.00;76963.97;5306864;28;20020;-78
2023/09/01 10:55:10;;;;;;;4.45;4.05;;;;;;;-145.79;100.00;76961.84;5317466;28;20115;-79
2023/09/01 10:57:48;;;;;;;4.50;4.10;;;;;;;-145.79;100.00;76957.59;5311330;28;20024;-80
2023/09/01 11:00:32;;;;;;;4.72;4.32;;;;;;;-145.79;100.00;76949.13;5300068;28;20106;-81
2023/09/01 11:03:28;;;;;;;3.97;3.67;;;;;;;-145.79;100.00;76949.13;5283707;28;20059;-81
2023/09/01 11:06:01;;;;;;;5.07;4.30;;;;;;;-145.79;100.00;76947.00;5316689;28;20110;-80
2023/09/01 11:08:32;;;;;;;3.95;3.45;;;;;;;-145.79;100.00;76940.66;5313536;28;20039;-81
2023/09/01 11:11:08;;;;;;;3.33;3.08;;;;;;;-145.79;100.00;76923.69;5315850;28;20027;-81
2023/09/01 11:13:39;;;;;;;3.88;3.58;;;;;;;-145.79;100.00;76910.97;5316774;28;20023;-80
2023/09/01 11:16:11;;;;;;;3.90;3.60;;;;;;;-145.79;100.00;76898.25;5313972;28;20026;-80
2023/09/01 11:18:44;;;;;;;4.05;3.60;;;;;;;-145.79;100.00;76900.38;5316614;28;20016;-81
2023/09/01 11:21:16;;;;;;;3.50;3.20;;;;;;;-145.79;100.00;76910.97;5314786;28;20027;-81
2023/09/01 11:23:48;;;;;;;4.05;3.35;;;;;;;-145.79;100.00;76904.63;5317152;28;20028;-80
2023/09/01 11:26:19;;;;;;;3.65;3.15;;;;;;;-145.79;100.00;76891.91;5312708;28;20020;-82
2023/09/01 11:28:51;;;;;;;3.30;3.00;;;;;;;-145.79;100.00;76885.56;5315380;28;20040;-80
2023/09/01 11:31:25;;;;;;;3.53;2.92;;;;;;;-145.79;100.00;76877.06;5300859;28;20048;-80
2023/09/01 11:33:56;;;;;;;3.33;3.03;;;;;;;-145.79;100.00;76885.56;5282795;28;20028;-79
2023/09/01 11:36:30;;;;;;;2.80;2.60;;;;;;;-145.79;100.00;76881.31;5284051;28;20020;-79
2023/09/01 11:39:02;;;;;;;2.67;2.47;;;;;;;-145.79;100.00;76877.06;5316860;28;20035;-79
2023/09/01 11:41:34;;;;;;;2.75;2.55;;;;;;;-145.79;100.00;76872.84;5319487;28;20032;-80
2023/09/01 11:44:09;;;;;;;5.32;4.88;;;;;;;-145.79;100.00;76877.06;5320782;28;20048;-80
2023/09/01 11:46:41;;;;;;;3.60;3.30;;;;;;;-145.79;100.00;76860.13;5307577;28;20892;-81
2023/09/01 11:49:16;;;;;;;3.70;3.40;;;;;;;-145.79;100.00;76855.88;5300545;28;20510;-81
2023/09/01 11:51:48;;;;;;;4.03;3.72;;;;;;;-145.79;100.00;76847.41;5311457;28;20024;-80
2023/09/01 11:54:19;;;;;;;3.92;3.63;;;;;;;-145.79;100.00;76834.69;5311166;28;20024;-81
2023/09/01 11:56:50;;;;;;;3.60;3.35;;;;;;;-145.79;100.00;76843.16;5310923;28;20036;-81
2023/09/01 11:59:22;;;;;;;2.67;2.47;;;;;;;-145.79;100.00;76834.69;5312361;28;20028;-81
2023/09/01 12:01:54;;;;;;;2.90;2.70;;;;;;;-145.79;100.00;76838.94;5297633;28;20031;-80
2023/09/01 12:04:26;;;;;;;2.20;2.00;;;;;;;-145.79;100.00;76843.16;5295779;28;20440;-80
2023/09/01 12:06:58;;;;;;;1.95;1.85;;;;;;;-145.79;100.00;76838.94;5296473;28;20021;-80
2023/09/01 12:09:29;;;;;;;110.43;100.15;;;;;;;-145.79;100.00;76832.56;5304203;28;20056;-80
2023/09/01 12:12:02;;;;;;;6.97;6.35;;;;;;;-145.79;100.00;76828.31;5300579;28;20447;-76
2023/09/01 12:14:36;;;;;;;2.70;2.50;;;;;;;-145.79;100.00;76826.22;5306649;28;20031;-73
2023/09/01 12:17:18;;;;;;;3.45;3.15;;;;;;;-145.79;100.00;76826.22;5315972;28;20123;-80
2023/09/01 12:19:51;;;;;;;3.35;3.08;;;;;;;-145.79;100.00;76830.44;5311894;28;20058;-76
2023/09/01 12:22:22;;;;;;;2.88;2.67;;;;;;;-145.79;100.00;76832.56;5316002;28;20054;-76
2023/09/01 12:24:56;;;;;;;2.67;2.47;;;;;;;-145.79;100.00;76826.22;5284893;28;20029;-75
2023/09/01 12:27:27;;;;;;;3.30;3.10;;;;;;;-145.79;100.00;76800.78;5317537;28;20020;-75
2023/09/01 12:29:58;;;;;;;4.47;3.47;;;;;;;-145.79;100.00;76809.25;5312747;28;20519;-76
2023/09/01 12:32:30;;;;;;;2.40;2.20;;;;;;;-145.79;100.00;76828.31;5314182;28;20035;-75
2023/09/01 12:35:01;;;;;;;6.63;3.90;;;;;;;-145.79;100.00;76834.69;5313155;28;20485;-75
2023/09/01 12:37:36;;;;;;;4.70;4.30;;;;;;;-145.79;100.00;76828.31;5314082;28;20562;-84
2023/09/01 12:40:08;;;;;;;3.20;2.88;;;;;;;-145.79;100.00;76817.72;5300146;28;20024;-76
2023/09/01 12:42:39;;;;;;;2.33;2.13;;;;;;;-145.79;100.00;76809.25;5314945;28;20396;-74
2023/09/01 12:45:11;;;;;;;2.70;2.50;;;;;;;-145.79;100.00;76775.34;5311548;28;20028;-75
2023/09/01 12:47:42;;;;;;;2.80;2.50;;;;;;;-145.79;100.00;76762.63;5305819;28;20467;-75
2023/09/01 12:50:13;;;;;;;10.38;9.57;;;;;;;-145.79;100.00;76754.16;5287326;28;20036;-76
2023/09/01 12:52:45;;;;;;;2.90;2.70;;;;;;;-145.79;100.00;76771.09;5312348;28;20441;-76
2023/09/01 12:55:17;;;;;;;3.10;2.90;;;;;;;-145.79;100.00;76775.34;5305414;28;20032;-76
2023/09/01 12:58:08;;;;;;;3.47;3.17;;;;;;;-145.79;100.00;76779.59;5291672;28;20025;-75
2023/09/01 13:00:40;;;;;;;3.38;3.17;;;;;;;-145.79;98.87;76792.31;5310951;28;20044;-75
2023/09/01 13:03:14;;;;;;;2.88;2.63;;;;;;;-145.79;100.00;76777.47;5317550;28;20088;-76
2023/09/01 13:05:48;;;;;;;3.37;3.07;;;;;;;-145.79;100.00;76771.09;5312560;28;20044;-75
2023/09/01 13:08:19;;;;;;;3.92;3.50;;;;;;;-145.79;100.00;76762.63;5317646;28;20035;-75
2023/09/01 13:10:50;;;;;;;4.53;4.13;;;;;;;-145.79;100.00;76758.38;5308150;28;20024;-75
2023/09/01 13:13:21;;;;;;;3.85;3.55;;;;;;;-145.79;100.00;76741.44;5317342;28;20020;-77
2023/09/01 13:15:53;;;;;;;3.35;3.15;;;;;;;-145.79;100.00;76747.78;5284118;28;20421;-77
2023/09/01 13:18:24;;;;;;;5.82;4.57;;;;;;;-145.79;99.79;76747.78;5284612;28;20028;-77
2023/09/01 13:20:56;;;;;;;3.78;3.45;;;;;;;-145.79;99.27;76730.84;5302642;28;20036;-77
2023/09/01 13:23:27;;;;;;;2.67;2.47;;;;;;;-145.79;97.68;76718.13;5282883;28;20456;-76
2023/09/01 13:25:59;;;;;;;2.80;2.53;;;;;;;-145.79;95.60;76705.41;5311498;28;20178;-77
2023/09/01 13:28:31;;;;;;;4.68;2.83;;;;;;;-145.79;95.70;76699.06;5317509;27;20023;-79
2023/09/01 13:31:02;;;;;;;59.25;53.92;;;;;;;-145.79;95.25;76660.91;5305667;28;20043;-75
2023/09/01 13:33:39;;;;;;;9.30;7.72;;;;;;;-145.79;94.84;76660.91;5315995;28;20039;-77
2023/09/01 13:36:10;;;;;;;4.40;3.88;;;;;;;-145.79;94.09;76652.44;5316896;28;20051;-77
2023/09/01 13:38:41;;;;;;;2.97;2.75;;;;;;;-145.79;93.63;76614.28;5314821;28;20047;-77
2023/09/01 13:41:13;;;;;;;3.80;3.47;;;;;;;-145.79;92.17;76597.31;5311892;28;20036;-77
2023/09/01 13:43:45;;;;;;;3.58;2.42;;;;;;;-145.79;91.50;76584.59;5312425;28;20103;-77
2023/09/01 13:46:27;;;;;;;2.60;2.40;;;;;;;-145.79;90.69;76595.22;5296123;28;20115;-76
2023/09/01 13:48:59;;;;;;;2.72;2.53;;;;;;;-145.79;88.51;76622.75;5283708;28;20044;-76
2023/09/01 13:51:31;;;;;;;3.10;2.80;;;;;;;-145.79;89.87;76614.28;5302330;28;20092;-77
2023/09/01 13:54:02;;;;;;;3.58;3.13;;;;;;;-145.79;88.10;76618.53;5310783;28;20020;-77
2023/09/01 13:56:34;;;;;;;2.67;2.47;;;;;;;-145.79;87.39;76618.53;5303545;28;20111;-76
2023/09/01 13:59:06;;;;;;;2.83;2.63;;;;;;;-145.79;87.60;76580.38;5308659;28;20076;-77
2023/09/01 14:01:39;;;;;;;2.88;2.67;;;;;;;-145.79;87.36;76550.69;5300742;28;20034;-76
2023/09/01 14:04:10;;;;;;;3.03;2.80;;;;;;;-145.79;86.76;76523.16;5304510;28;20031;-78
2023/09/01 14:06:42;;;;;;;3.50;3.20;;;;;;;-145.79;85.58;76535.88;5302978;28;20024;-77
2023/09/01 14:09:13;;;;;;;3.50;3.20;;;;;;;-145.79;82.69;76523.16;5315566;28;20111;-76
2023/09/01 14:11:46;;;;;;;3.33;3.03;;;;;;;-145.79;81.12;76516.78;5316097;28;20070;-77
2023/09/01 14:14:18;;;;;;;4.90;3.40;;;;;;;-145.79;82.77;76495.59;5309362;28;20434;-76
2023/09/01 14:16:49;;;;;;;3.45;3.17;;;;;;;-145.79;81.79;76493.50;5305670;28;20047;-77
2023/09/01 14:19:21;;;;;;;2.80;2.60;;;;;;;-145.79;79.74;76516.78;5324854;28;20038;-77
2023/09/01 14:21:52;;;;;;;12.38;11.30;;;;;;;-145.79;80.25;76508.31;5302543;28;20114;-80
2023/09/01 14:24:23;;;;;;;19.85;18.08;;;;;;;-145.79;79.26;76523.16;5307727;28;20028;-76
2023/09/01 14:26:55;;;;;;;4.20;3.47;;;;;;;-145.79;80.69;76491.38;5316458;28;20391;-77
2023/09/01 14:29:26;;;;;;;3.35;3.08;;;;;;;-145.79;82.17;76512.56;5323886;28;20028;-76
2023/09/01 14:31:57;;;;;;;3.60;3.30;;;;;;;-145.79;82.82;76531.63;5316738;28;20096;-76
2023/09/01 14:34:29;;;;;;;2.63;2.42;;;;;;;-145.79;81.09;76538.00;5302957;28;20028;-77
2023/09/01 14:37:00;;;;;;;3.35;2.88;;;;;;;-145.79;80.78;76516.78;5293123;28;20029;-77
2023/09/01 14:39:31;;;;;;;2.70;2.50;;;;;;;-145.79;80.20;76514.69;5293899;28;20028;-77
2023/09/01 14:42:03;;;;;;;3.08;2.70;;;;;;;-145.79;79.27;76516.78;5314344;28;20078;-76
2023/09/01 14:44:34;;;;;;;2.90;2.70;;;;;;;-145.79;80.06;76508.31;5312567;28;20381;-77
2023/09/01 14:47:08;;;;;;;3.47;3.17;;;;;;;-145.79;80.91;76504.09;5315592;28;20047;-77
2023/09/01 14:49:40;;;;;;;3.00;2.80;;;;;;;-145.79;80.54;76504.09;5311574;28;20399;-78
2023/09/01 14:52:12;;;;;;;3.90;3.50;;;;;;;-145.79;79.46;76542.22;5312207;28;20035;-78
2023/09/01 14:54:50;;;;;;;4.15;3.85;;;;;;;-145.79;80.80;76554.94;5302195;28;20021;-78
2023/09/01 14:57:21;;;;;;;5.40;3.67;;;;;;;-145.79;79.86;76580.38;5305550;28;20028;-77
2023/09/01 14:59:53;;;;;;;4.25;3.95;;;;;;;-145.79;80.13;76590.97;5321246;28;20028;-78
2023/09/01 15:02:25;;;;;;;5.75;4.80;;;;;;;-145.79;82.11;76580.38;5310449;28;20036;-78
2023/09/01 15:04:57;;;;;;;3.42;3.13;;;;;;;-145.79;82.10;76571.91;5309805;28;20031;-78
2023/09/01 15:07:29;;;;;;;4.65;4.25;;;;;;;-145.79;81.37;76571.91;5312333;28;20338;-77
2023/09/01 15:10:01;;;;;;;4.90;4.50;;;;;;;-145.79;80.95;76576.13;5305912;28;20024;-78
2023/09/01 15:12:33;;;;;;;5.20;4.80;;;;;;;-145.79;80.89;76580.38;5309875;28;20047;-78
2023/09/01 15:15:04;;;;;;;5.35;4.90;;;;;;;-145.79;81.09;76576.13;5319644;28;20023;-78
2023/09/01 15:17:39;;;;;;;9.38;8.68;;;;;;;-145.79;82.57;76567.66;5314392;28;20027;-75
2023/09/01 15:20:12;;;;;;;6.85;6.15;;;;;;;-145.79;82.46;76580.38;5315898;28;20504;-79
2023/09/01 15:22:43;;;;;;;5.60;5.20;;;;;;;-145.79;82.77;76588.84;5310233;28;20089;-78
2023/09/01 15:25:14;;;;;;;5.35;4.95;;;;;;;-145.79;83.33;76588.84;5312463;28;20032;-77
2023/09/01 15:27:46;;;;;;;27.40;24.95;;;;;;;-145.79;83.92;76576.13;5311842;28;20043;-77
2023/09/01 15:30:18;;;;;;;63.25;57.15;;;;;;;-145.79;84.03;76584.59;5306430;28;20122;-77
2023/09/01 15:32:51;;;;;;;9.45;8.57;;;;;;;-145.79;84.28;76599.44;5308551;28;20024;-76
2023/09/01 15:35:22;;;;;;;5.85;5.25;;;;;;;-145.79;84.30;76601.56;5308724;28;20032;-75
2023/09/01 15:37:54;;;;;;;5.32;4.93;;;;;;;-145.79;83.18;76601.56;5306878;28;20032;-81
2023/09/01 15:40:25;;;;;;;4.80;4.40;;;;;;;-145.79;83.42;76597.31;5310021;28;20107;-76
2023/09/01 15:42:57;;;;;;;5.30;4.80;;;;;;;-145.79;82.91;76588.84;5296046;28;20056;-79
2023/09/01 15:45:29;;;;;;;5.25;4.75;;;;;;;-145.79;82.77;76590.97;5310660;28;20032;-79
2023/09/01 15:48:02;;;;;;;5.85;5.20;;;;;;;-145.79;83.52;76576.13;5311939;28;20058;-78
2023/09/01 15:50:33;;;;;;;4.55;4.15;;;;;;;-145.79;83.23;76571.91;5317083;28;20031;-78
2023/09/01 15:53:04;;;;;;;4.60;4.30;;;;;;;-145.79;83.18;76578.25;5313866;28;20196;-81
2023/09/01 15:55:38;;;;;;;3.90;3.60;;;;;;;-145.79;81.55;76580.38;5316122;28;20027;-78
2023/09/01 15:58:09;;;;;;;5.00;4.60;;;;;;;-145.79;83.48;76567.66;5322038;28;20020;-75
2023/09/01 16:00:44;;;;;;;6.65;5.82;;;;;;;-145.79;83.56;76569.78;5300612;28;20062;-80
2023/09/01 16:03:16;;;;;;;5.43;4.90;;;;;;;-145.79;83.32;76565.53;5298389;28;20031;-76
2023/09/01 16:05:50;;;;;;;7.78;7.07;;;;;;;-145.79;83.38;76561.28;5315761;28;20046;-76
2023/09/01 16:08:21;;;;;;;5.93;5.43;;;;;;;-145.79;81.74;76569.78;5316173;28;20061;-76
2023/09/01 16:10:53;;;;;;;4.28;3.97;;;;;;;-145.79;83.00;76574.00;5308640;28;20463;-77
2023/09/01 16:13:24;;;;;;;4.35;4.05;;;;;;;-145.79;81.39;76561.28;5315679;28;20093;-76
2023/09/01 16:15:56;;;;;;;4.68;4.38;;;;;;;-145.79;80.59;76546.47;5315220;28;20029;-77
2023/09/01 16:18:27;;;;;;;4.88;4.47;;;;;;;-145.79;80.65;76542.22;5315106;28;20055;-77
2023/09/01 16:21:03;;;;;;;4.60;4.30;;;;;;;-145.79;80.20;76563.41;5310457;28;20142;-77
2023/09/01 16:23:35;;;;;;;5.03;4.63;;;;;;;-145.79;80.08;76578.25;5319402;28;20176;-78
2023/09/01 16:26:08;;;;;;;4.82;4.43;;;;;;;-145.79;80.38;76580.38;5309997;28;20028;-74
2023/09/01 16:28:39;;;;;;;4.90;4.50;;;;;;;-145.79;81.00;76576.13;5312058;28;20031;-76
2023/09/01 16:31:11;;;;;;;5.20;4.80;;;;;;;-145.79;81.92;76576.13;5308466;28;20033;-76
2023/09/01 16:33:43;;;;;;;5.68;5.18;;;;;;;-145.79;81.92;76574.00;5314150;28;20036;-76
2023/09/01 16:36:17;;;;;;;5.10;4.70;;;;;;;-145.79;82.68;76586.72;5316251;28;20027;-76
2023/09/01 16:38:49;;;;;;;5.03;4.63;;;;;;;-145.79;82.34;76588.84;5297982;28;20032;-77
2023/09/01 16:41:20;;;;;;;5.38;4.97;;;;;;;-145.79;84.61;76605.81;5314805;28;20031;-76
2023/09/01 16:43:52;;;;;;;4.95;4.43;;;;;;;-145.79;83.97;76595.22;5318952;28;20111;-75
2023/09/01 16:46:23;;;;;;;4.40;4.10;;;;;;;-145.79;84.54;76603.69;5313703;28;20028;-76
2023/09/01 16:49:01;;;;;;;4.32;3.88;;;;;;;-145.79;85.69;76607.91;5308911;28;20027;-77
2023/09/01 16:51:33;;;;;;;4.50;4.20;;;;;;;-145.79;86.04;76610.03;5319719;28;20032;-78
2023/09/01 16:54:04;;;;;;;5.43;5.03;;;;;;;-145.79;85.28;76601.56;5310289;28;20028;-80
